N868SG WMBT-WSSL
Flight info
| Callsign | N868SG |
|---|---|
| Flight time | N/A |
| Altitude | 3500 |
| Route | VMR SEDILIBESAR KOTATINGGI SOUTHULUTIRAM KK |
| Aircraft | DA62/L-V/N |
Departure
| Time | N/A |
|---|---|
| Airport | Tioman Airport (WMBT) |
Arrival
| Time | 2026-04-28 15:07 |
|---|---|
| Airport | Seletar Airport (WSSL) |
| Time | Latitude | Longitude | Altitude | Speed | Heading |
|---|---|---|---|---|---|
| 2026-04-28 14:33 | 2.46916 | 104.01850 | 3506 ft | 179 kts | 180° |
| 2026-04-28 14:33 | 2.45673 | 104.01805 | 3512 ft | 179 kts | 180° |
| 2026-04-28 14:33 | 2.44442 | 104.01759 | 3510 ft | 179 kts | 180° |
| 2026-04-28 14:34 | 2.41958 | 104.01664 | 3513 ft | 179 kts | 180° |
| 2026-04-28 14:34 | 2.40717 | 104.01617 | 3509 ft | 178 kts | 180° |
| 2026-04-28 14:34 | 2.39479 | 104.01571 | 3508 ft | 178 kts | 180° |
| 2026-04-28 14:35 | 2.38240 | 104.01525 | 3509 ft | 178 kts | 180° |
| 2026-04-28 14:35 | 2.37006 | 104.01477 | 3508 ft | 177 kts | 180° |
| 2026-04-28 14:35 | 2.35774 | 104.01430 | 3509 ft | 177 kts | 180° |
| 2026-04-28 14:35 | 2.34542 | 104.01383 | 3508 ft | 177 kts | 180° |
| 2026-04-28 14:36 | 2.33314 | 104.01338 | 3509 ft | 177 kts | 180° |
| 2026-04-28 14:36 | 2.32082 | 104.01294 | 3510 ft | 177 kts | 180° |
| 2026-04-28 14:36 | 2.30865 | 104.01251 | 3508 ft | 177 kts | 180° |
| 2026-04-28 14:36 | 2.29634 | 104.01208 | 3508 ft | 177 kts | 180° |
| 2026-04-28 14:37 | 2.28401 | 104.01164 | 3509 ft | 177 kts | 180° |
| 2026-04-28 14:37 | 2.27168 | 104.01119 | 3504 ft | 178 kts | 180° |
| 2026-04-28 14:37 | 2.25931 | 104.01077 | 3508 ft | 178 kts | 180° |
| 2026-04-28 14:37 | 2.24692 | 104.01033 | 3510 ft | 178 kts | 180° |
| 2026-04-28 14:38 | 2.23454 | 104.00990 | 3507 ft | 178 kts | 180° |
| 2026-04-28 14:38 | 2.22210 | 104.00945 | 3505 ft | 178 kts | 180° |
| 2026-04-28 14:38 | 2.20971 | 104.00901 | 3505 ft | 179 kts | 180° |
| 2026-04-28 14:38 | 2.19746 | 104.00856 | 3505 ft | 178 kts | 180° |
| 2026-04-28 14:39 | 2.18505 | 104.00813 | 3505 ft | 178 kts | 180° |
| 2026-04-28 14:39 | 2.17266 | 104.00771 | 3504 ft | 178 kts | 180° |
| 2026-04-28 14:39 | 2.16033 | 104.00747 | 3503 ft | 177 kts | 176° |
| 2026-04-28 14:39 | 2.14800 | 104.00799 | 3498 ft | 177 kts | 175° |
| 2026-04-28 14:40 | 2.13561 | 104.00863 | 3508 ft | 181 kts | 175° |
| 2026-04-28 14:40 | 2.12715 | 104.00900 | 3485 ft | 185 kts | 175° |
| 2026-04-28 14:40 | 2.11004 | 104.00993 | 3485 ft | 182 kts | 175° |
| 2026-04-28 14:40 | 2.09752 | 104.01058 | 3482 ft | 180 kts | 175° |
| 2026-04-28 14:41 | 2.08523 | 104.01119 | 3480 ft | 178 kts | 175° |
| 2026-04-28 14:41 | 2.07286 | 104.01182 | 3480 ft | 178 kts | 175° |
| 2026-04-28 14:41 | 2.06048 | 104.01245 | 3483 ft | 179 kts | 175° |
| 2026-04-28 14:41 | 2.04800 | 104.01299 | 3488 ft | 180 kts | 175° |
| 2026-04-28 14:42 | 2.03543 | 104.01366 | 3482 ft | 182 kts | 175° |
| 2026-04-28 14:42 | 2.02281 | 104.01432 | 3489 ft | 182 kts | 175° |
| 2026-04-28 14:42 | 2.01023 | 104.01502 | 3484 ft | 180 kts | 175° |
| 2026-04-28 14:42 | 1.99773 | 104.01567 | 3486 ft | 179 kts | 175° |
| 2026-04-28 14:43 | 1.98528 | 104.01631 | 3492 ft | 179 kts | 175° |
| 2026-04-28 14:43 | 1.97279 | 104.01695 | 3487 ft | 180 kts | 175° |
| 2026-04-28 14:43 | 1.96045 | 104.01759 | 3484 ft | 180 kts | 176° |
| 2026-04-28 14:43 | 1.94795 | 104.01824 | 3482 ft | 180 kts | 175° |
| 2026-04-28 14:44 | 1.93538 | 104.01892 | 3484 ft | 181 kts | 175° |
| 2026-04-28 14:44 | 1.92286 | 104.01962 | 3483 ft | 180 kts | 175° |
| 2026-04-28 14:44 | 1.91038 | 104.02029 | 3481 ft | 179 kts | 175° |
| 2026-04-28 14:44 | 1.89802 | 104.02096 | 3480 ft | 178 kts | 175° |
| 2026-04-28 14:45 | 1.88565 | 104.02163 | 3480 ft | 177 kts | 175° |
| 2026-04-28 14:45 | 1.87336 | 104.02225 | 3478 ft | 177 kts | 175° |
| 2026-04-28 14:45 | 1.86102 | 104.02288 | 3486 ft | 178 kts | 175° |
| 2026-04-28 14:45 | 1.84860 | 104.02350 | 3479 ft | 179 kts | 175° |
| 2026-04-28 14:46 | 1.83615 | 104.02388 | 3481 ft | 179 kts | 179° |
| 2026-04-28 14:46 | 1.82367 | 104.02348 | 3483 ft | 181 kts | 180° |
| 2026-04-28 14:46 | 1.81118 | 104.02308 | 3362 ft | 186 kts | 180° |
| 2026-04-28 14:46 | 1.79798 | 104.02266 | 3073 ft | 192 kts | 180° |
| 2026-04-28 14:47 | 1.78470 | 104.02207 | 2902 ft | 190 kts | 182° |
| 2026-04-28 14:47 | 1.77154 | 104.02076 | 2697 ft | 189 kts | 184° |
| 2026-04-28 14:47 | 1.75847 | 104.01939 | 2518 ft | 189 kts | 184° |
| 2026-04-28 14:47 | 1.74553 | 104.01796 | 2340 ft | 187 kts | 185° |
| 2026-04-28 14:48 | 1.73263 | 104.01627 | 2120 ft | 187 kts | 186° |
| 2026-04-28 14:48 | 1.71976 | 104.01432 | 1884 ft | 188 kts | 187° |
| 2026-04-28 14:48 | 1.70673 | 104.01218 | 1596 ft | 191 kts | 187° |
| 2026-04-28 14:48 | 1.69371 | 104.01010 | 1501 ft | 186 kts | 188° |
| 2026-04-28 14:49 | 1.68104 | 104.00832 | 1490 ft | 181 kts | 185° |
| 2026-04-28 14:49 | 1.66865 | 104.00686 | 1492 ft | 178 kts | 185° |
| 2026-04-28 14:49 | 1.65640 | 104.00539 | 1494 ft | 178 kts | 185° |
| 2026-04-28 14:49 | 1.64415 | 104.00395 | 1496 ft | 177 kts | 185° |
| 2026-04-28 14:50 | 1.63199 | 104.00249 | 1496 ft | 179 kts | 185° |
| 2026-04-28 14:50 | 1.61968 | 104.00064 | 1497 ft | 179 kts | 189° |
| 2026-04-28 14:50 | 1.60759 | 103.99819 | 1495 ft | 177 kts | 190° |
| 2026-04-28 14:50 | 1.59560 | 103.99572 | 1496 ft | 176 kts | 190° |
| 2026-04-28 14:51 | 1.58369 | 103.99280 | 1494 ft | 176 kts | 195° |
| 2026-04-28 14:51 | 1.57204 | 103.98938 | 1489 ft | 175 kts | 195° |
| 2026-04-28 14:51 | 1.56039 | 103.98591 | 1492 ft | 174 kts | 195° |
| 2026-04-28 14:51 | 1.54876 | 103.98244 | 1493 ft | 174 kts | 195° |
| 2026-04-28 14:52 | 1.53728 | 103.97900 | 1498 ft | 174 kts | 195° |
| 2026-04-28 14:52 | 1.52565 | 103.97549 | 1492 ft | 174 kts | 196° |
| 2026-04-28 14:52 | 1.51475 | 103.97016 | 1496 ft | 175 kts | 209° |
| 2026-04-28 14:52 | 1.50422 | 103.96404 | 1503 ft | 176 kts | 209° |
| 2026-04-28 14:53 | 1.49369 | 103.95783 | 1507 ft | 175 kts | 209° |
| 2026-04-28 14:53 | 1.48335 | 103.95128 | 1503 ft | 177 kts | 221° |
| 2026-04-28 14:53 | 1.47811 | 103.94044 | 1499 ft | 178 kts | 266° |
| 2026-04-28 14:53 | 1.47937 | 103.92819 | 1511 ft | 177 kts | 280° |
| 2026-04-28 14:54 | 1.48133 | 103.91604 | 1508 ft | 176 kts | 280° |
| 2026-04-28 14:54 | 1.48330 | 103.90396 | 1509 ft | 176 kts | 280° |
| 2026-04-28 14:54 | 1.48522 | 103.89202 | 1515 ft | 178 kts | 280° |
| 2026-04-28 14:54 | 1.48714 | 103.87974 | 1516 ft | 179 kts | 280° |
| 2026-04-28 14:55 | 1.48891 | 103.86872 | 1521 ft | 178 kts | 280° |
| 2026-04-28 14:55 | 1.49088 | 103.85649 | 1511 ft | 179 kts | 280° |
| 2026-04-28 14:55 | 1.49009 | 103.84431 | 1511 ft | 179 kts | 245° |
| 2026-04-28 14:55 | 1.48161 | 103.83538 | 1514 ft | 179 kts | 212° |
| 2026-04-28 14:56 | 1.47016 | 103.83352 | 1639 ft | 166 kts | 158° |
| 2026-04-28 14:56 | 1.46252 | 103.84177 | 1500 ft | 168 kts | 102° |
| 2026-04-28 14:56 | 1.46599 | 103.85146 | 1666 ft | 162 kts | 38° |
| 2026-04-28 14:56 | 1.47764 | 103.85190 | 1415 ft | 180 kts | 333° |
| 2026-04-28 14:57 | 1.48489 | 103.84253 | 1584 ft | 174 kts | 282° |
| 2026-04-28 14:57 | 1.48410 | 103.83459 | 1553 ft | 180 kts | 246° |
| 2026-04-28 14:57 | 1.47076 | 103.82511 | 1261 ft | 183 kts | 180° |
| 2026-04-28 14:57 | 1.46102 | 103.83034 | 1541 ft | 161 kts | 116° |
| 2026-04-28 14:58 | 1.46185 | 103.84165 | 1167 ft | 181 kts | 52° |
| 2026-04-28 14:58 | 1.46445 | 103.84394 | 1344 ft | 166 kts | 31° |
| 2026-04-28 14:58 | 1.46618 | 103.84470 | 1519 ft | 153 kts | 17° |
| 2026-04-28 14:58 | 1.47445 | 103.84130 | 2151 ft | 138 kts | 302° |
| 2026-04-28 14:59 | 1.47355 | 103.83193 | 2322 ft | 142 kts | 224° |
| 2026-04-28 14:59 | 1.46517 | 103.83092 | 2581 ft | 135 kts | 141° |
| 2026-04-28 14:59 | 1.46292 | 103.84034 | 2387 ft | 159 kts | 72° |
| 2026-04-28 14:59 | 1.47069 | 103.84712 | 2324 ft | 148 kts | 12° |
| 2026-04-28 15:00 | 1.47970 | 103.84408 | 2293 ft | 143 kts | 315° |
| 2026-04-28 15:00 | 1.48298 | 103.83458 | 2092 ft | 151 kts | 266° |
| 2026-04-28 15:00 | 1.47897 | 103.82486 | 1827 ft | 155 kts | 226° |
| 2026-04-28 15:00 | 1.47007 | 103.82064 | 1828 ft | 136 kts | 174° |
| 2026-04-28 15:01 | 1.46313 | 103.82534 | 1735 ft | 128 kts | 108° |
| 2026-04-28 15:01 | 1.46582 | 103.83355 | 1565 ft | 135 kts | 35° |
| 2026-04-28 15:01 | 1.47440 | 103.83371 | 1592 ft | 130 kts | 329° |
| 2026-04-28 15:01 | 1.47858 | 103.82587 | 1420 ft | 138 kts | 269° |
| 2026-04-28 15:02 | 1.47366 | 103.81977 | 1584 ft | 110 kts | 177° |
| 2026-04-28 15:02 | 1.46827 | 103.82502 | 1172 ft | 132 kts | 95° |
| 2026-04-28 15:02 | 1.47012 | 103.83364 | 1214 ft | 118 kts | 78° |
| 2026-04-28 15:02 | 1.46928 | 103.84152 | 1243 ft | 113 kts | 112° |
| 2026-04-28 15:03 | 1.46565 | 103.84830 | 1232 ft | 114 kts | 119° |
| 2026-04-28 15:03 | 1.46130 | 103.85519 | 1150 ft | 122 kts | 129° |
| 2026-04-28 15:03 | 1.45457 | 103.85968 | 1147 ft | 121 kts | 160° |
| 2026-04-28 15:03 | 1.44656 | 103.86035 | 998 ft | 114 kts | 185° |
| 2026-04-28 15:04 | 1.43885 | 103.85831 | 815 ft | 111 kts | 200° |
| 2026-04-28 15:04 | 1.43215 | 103.85531 | 818 ft | 106 kts | 205° |
| 2026-04-28 15:04 | 1.42555 | 103.85167 | 865 ft | 113 kts | 213° |
| 2026-04-28 15:04 | 1.41914 | 103.84665 | 907 ft | 122 kts | 218° |
| 2026-04-28 15:05 | 1.41258 | 103.84117 | 919 ft | 118 kts | 217° |
| 2026-04-28 15:05 | 1.40569 | 103.83817 | 862 ft | 108 kts | 180° |
| 2026-04-28 15:05 | 1.39897 | 103.84041 | 768 ft | 102 kts | 137° |
| 2026-04-28 15:05 | 1.39554 | 103.84625 | 583 ft | 100 kts | 100° |
| 2026-04-28 15:06 | 1.39658 | 103.85304 | 437 ft | 102 kts | 57° |
| 2026-04-28 15:06 | 1.40196 | 103.85772 | 257 ft | 101 kts | 36° |
| 2026-04-28 15:06 | 1.40759 | 103.86154 | 111 ft | 96 kts | 33° |
| 2026-04-28 15:06 | 1.41268 | 103.86488 | 50 ft | 70 kts | 35° |
| 2026-04-28 15:07 | 1.41483 | 103.86617 | 50 ft | 17 kts | 41° |
| 2026-04-28 15:07 | 1.41546 | 103.86687 | 50 ft | 10 kts | 82° |
| 2026-04-28 15:07 | 1.41513 | 103.86757 | 49 ft | 15 kts | 124° |
| 2026-04-28 15:07 | 1.41439 | 103.86792 | 49 ft | 9 kts | 192° |
| 2026-04-28 15:08 | 1.41412 | 103.86814 | 49 ft | 2 kts | 69° |
| 2026-04-28 15:08 | 1.41424 | 103.86825 | 49 ft | 0 kts | 28° |